Time;durP1;ratioP1;P1;durP2;ratioP2;P2;SDS_P1;SDS_P2;PMS_P1;PMS_P2;Temp;Humidity;BMP_temperature;BMP_pressure;BME280_temperature;BME280_humidity;BME280_pressure;Samples;Min_cycle;Max_cycle;Signal;HPM_P1;HPM_P2
2022/11/14 10:09:02;;;;;;;7.43;1.35;;;;;;;23.45;48.47;100942.06;5132758;27;20360;-52
2022/11/14 10:11:39;;;;;;;2.90;0.90;;;;;;;23.79;47.69;100937.31;5117359;28;20553;-46
2022/11/14 10:14:27;;;;;;;2.15;0.80;;;;;;;24.03;46.84;100946.38;5130641;27;20053;-48
2022/11/14 10:17:22;;;;;;;3.47;0.98;;;;;;;24.17;46.30;100941.31;5112517;27;20038;-49
2022/11/14 10:20:12;;;;;;;2.33;0.70;;;;;;;24.32;46.28;100953.72;5106966;28;20050;-51
2022/11/14 10:23:07;;;;;;;3.42;0.60;;;;;;;24.43;45.77;100944.22;5109319;28;20032;-52
2022/11/14 10:26:13;;;;;;;6.03;1.42;;;;;;;24.42;45.87;100942.47;5106704;28;20023;-51
2022/11/14 10:28:48;;;;;;;2.80;0.93;;;;;;;24.51;45.57;100946.91;5109733;28;20036;-47
2022/11/14 10:31:33;;;;;;;;;;;;;;;24.55;45.53;100958.31;5110849;28;20440;-48
2022/11/14 10:34:20;;;;;;;5.55;0.90;;;;;;;24.68;44.89;100954.09;5109868;28;19915;-47
2022/11/14 10:37:26;;;;;;;6.82;1.08;;;;;;;24.72;45.06;100955.91;5109798;28;20032;-50
2022/11/14 10:39:57;;;;;;;5.43;0.80;;;;;;;24.80;44.48;100953.38;5109977;28;20102;-52
2022/11/14 10:42:40;;;;;;;2.72;0.80;;;;;;;24.71;44.67;100952.41;5108927;28;20028;-49
2022/11/14 10:45:17;;;;;;;3.13;0.88;;;;;;;24.80;44.64;100955.97;5108701;28;20481;-46
2022/11/14 10:47:49;;;;;;;2.00;0.85;;;;;;;24.81;44.63;100963.00;5108579;28;20055;-49
2022/11/14 10:50:21;;;;;;;3.28;1.00;;;;;;;24.84;44.36;100958.66;5091864;28;20462;-51
2022/11/14 10:52:52;;;;;;;2.88;0.80;;;;;;;24.72;44.51;100966.41;5109778;28;20089;-46
2022/11/14 10:55:20;;;;;;;4.20;1.17;;;;;;;24.87;44.09;100960.41;5109507;28;20032;-49
2022/11/14 10:57:48;;;;;;;5.07;0.80;;;;;;;24.97;43.80;100961.38;5108351;28;20144;-49
2022/11/14 11:00:18;;;;;;;8.35;1.25;;;;;;;24.92;44.00;100966.59;5109719;28;20532;-47
2022/11/14 11:02:58;;;;;;;6.43;0.95;;;;;;;24.87;44.22;100968.28;5108270;28;20398;-48
2022/11/14 11:05:29;;;;;;;3.80;1.02;;;;;;;24.87;43.81;100966.56;5109043;28;20020;-47
2022/11/14 11:11:30;;;;;;;7.72;1.33;;;;;;;24.85;44.39;100942.03;5108805;28;20039;-52
2022/11/14 11:13:36;;;;;;;4.25;0.82;;;;;;;24.87;44.09;100961.31;5090626;28;20031;-53
2022/11/14 11:16:04;;;;;;;7.68;1.40;;;;;;;24.81;44.11;100965.63;5098136;28;20037;-53
2022/11/14 11:18:35;;;;;;;6.38;1.30;;;;;;;24.91;44.09;100962.19;5116014;28;20019;-56
2022/11/14 11:21:13;;;;;;;7.47;1.52;;;;;;;24.85;44.01;100956.88;5116365;28;20024;-54
2022/11/14 11:24:00;;;;;;;9.35;1.52;;;;;;;25.00;43.70;100958.78;5097366;28;20031;-53
2022/11/14 11:26:30;;;;;;;3.78;1.58;;;;;;;25.06;43.72;100965.81;5115673;28;20436;-51
2022/11/14 11:29:12;;;;;;;5.68;1.40;;;;;;;25.11;43.56;100959.75;5097933;28;20047;-51
2022/11/14 11:31:59;;;;;;;4.90;1.15;;;;;;;25.18;43.53;100958.03;5116299;28;20031;-51
2022/11/14 11:34:29;;;;;;;5.35;1.00;;;;;;;25.17;43.79;100961.53;5115516;28;20036;-49
2022/11/14 11:37:10;;;;;;;7.13;1.85;;;;;;;25.15;44.04;100958.91;5097686;28;20099;-50
2022/11/14 11:39:44;;;;;;;3.83;1.00;;;;;;;25.10;44.24;100957.97;5115192;28;20035;-51
2022/11/14 11:42:19;;;;;;;4.45;0.80;;;;;;;25.07;44.24;100962.34;5097926;28;20438;-54
2022/11/14 11:44:50;;;;;;;3.63;0.98;;;;;;;25.06;44.08;100955.31;5115204;28;20122;-52
2022/11/14 11:47:19;;;;;;;2.95;0.77;;;;;;;25.10;43.89;100957.13;5115504;28;20075;-50
2022/11/14 11:49:48;;;;;;;2.67;0.52;;;;;;;25.12;43.66;100953.63;5115064;28;20066;-52
2022/11/14 11:52:40;;;;;;;3.63;0.88;;;;;;;25.15;43.69;100956.28;5115682;28;20020;-52
2022/11/14 11:55:29;;;;;;;11.40;1.27;;;;;;;25.16;43.37;100950.16;5115336;28;20020;-53
2022/11/14 11:58:09;;;;;;;2.90;0.80;;;;;;;25.16;43.31;100946.63;5115533;28;20024;-49
2022/11/14 12:00:38;;;;;;;2.80;0.80;;;;;;;25.17;43.49;100945.78;5114775;28;20023;-48
2022/11/14 12:03:12;;;;;;;4.80;0.82;;;;;;;25.17;43.37;100941.44;5115229;28;20023;-47
2022/11/14 12:05:47;;;;;;;9.48;1.15;;;;;;;25.13;43.08;100946.66;5114953;28;20056;-54
2022/11/14 12:08:26;;;;;;;4.22;1.17;;;;;;;25.22;42.76;100938.81;5096785;28;20493;-49
2022/11/14 12:10:54;;;;;;;9.95;1.30;;;;;;;25.24;42.61;100942.34;5096727;28;20469;-50
2022/11/14 12:13:45;;;;;;;13.18;1.77;;;;;;;25.22;42.64;100936.19;5096988;28;20035;-46
2022/11/14 12:16:36;;;;;;;23.02;2.28;;;;;;;25.26;42.63;100931.84;5096425;28;20032;-54
2022/11/14 12:19:32;;;;;;;16.98;2.10;;;;;;;25.20;42.77;100929.19;5113968;28;20045;-52
2022/11/14 12:22:38;;;;;;;14.95;2.10;;;;;;;25.21;42.50;100931.81;5108918;28;20042;-51
2022/11/14 12:25:11;;;;;;;12.07;2.00;;;;;;;25.22;42.32;100928.31;5112823;28;20041;-51
2022/11/14 12:27:56;;;;;;;10.30;1.70;;;;;;;25.25;41.76;100930.97;5115090;28;20016;-52
2022/11/14 12:30:24;;;;;;;;;;;;;;;25.22;41.30;100923.06;5097785;28;20527;-51
2022/11/14 12:32:56;;;;;;;8.43;1.13;;;;;;;25.24;41.02;100921.34;5114732;28;19907;-53
2022/11/14 12:35:36;;;;;;;3.45;1.17;;;;;;;25.03;40.17;100919.44;5115067;28;20065;-54
2022/11/14 12:38:13;;;;;;;9.02;2.10;;;;;;;25.00;39.53;100916.78;5096518;28;20030;-52
2022/11/14 12:40:49;;;;;;;5.30;1.10;;;;;;;24.95;39.65;100916.75;5114848;28;20076;-52
2022/11/14 12:43:37;;;;;;;6.68;1.20;;;;;;;24.84;38.80;100916.66;5114635;28;20023;-51
2022/11/14 12:46:08;;;;;;;4.57;1.27;;;;;;;24.75;37.92;100915.69;5087051;28;20040;-55
2022/11/14 12:48:39;;;;;;;5.97;1.45;;;;;;;24.78;37.44;100916.59;5114588;28;20055;-59
2022/11/14 12:51:27;;;;;;;6.57;1.33;;;;;;;24.76;37.33;100907.84;5114374;28;20062;-53
2022/11/14 12:53:56;;;;;;;5.10;1.33;;;;;;;24.81;36.96;100903.50;5114014;28;20445;-51
2022/11/14 12:56:35;;;;;;;7.93;2.03;;;;;;;24.76;36.87;100907.84;5114354;28;20031;-52
2022/11/14 12:59:25;;;;;;;7.60;1.42;;;;;;;24.71;36.97;100899.06;5114093;28;20478;-55
2022/11/14 13:01:55;;;;;;;5.32;1.55;;;;;;;24.71;36.42;100904.31;5106405;28;20031;-52
2022/11/14 13:04:43;;;;;;;5.45;1.30;;;;;;;24.66;36.55;100896.34;5114084;28;20038;-52
2022/11/14 13:07:34;;;;;;;5.72;1.20;;;;;;;24.62;35.47;100891.97;5103635;28;20032;-53
2022/11/14 13:10:13;;;;;;;4.38;1.30;;;;;;;24.57;35.95;100894.50;5105095;28;20028;-48
2022/11/14 13:22:13;;;;;;;7.53;1.38;;;;;;;24.62;35.13;100889.34;5091228;28;20494;-55
2022/11/14 13:25:00;;;;;;;5.65;1.83;;;;;;;24.57;35.15;100896.28;5107988;28;20081;-47
2022/11/14 13:27:31;;;;;;;6.10;1.08;;;;;;;24.52;35.18;100884.84;5113574;28;20036;-52
2022/11/14 13:30:01;;;;;;;6.13;1.40;;;;;;;24.46;35.45;100890.06;5113951;28;20020;-55
2022/11/14 13:32:48;;;;;;;3.47;1.10;;;;;;;24.38;35.44;100893.47;5113553;28;20024;-48
2022/11/14 13:35:22;;;;;;;9.00;1.38;;;;;;;24.46;34.89;100895.31;5104158;28;20545;-54
2022/11/14 13:38:14;;;;;;;6.50;1.33;;;;;;;24.34;35.60;100899.53;5113886;28;20031;-52
2022/11/14 13:41:02;;;;;;;3.33;1.13;;;;;;;24.31;35.10;100898.63;5085770;28;20126;-48
2022/11/14 13:43:50;;;;;;;4.70;1.38;;;;;;;24.30;34.98;100891.63;5089324;28;20134;-51
2022/11/14 13:46:33;;;;;;;2.83;0.93;;;;;;;24.28;34.74;100894.25;5113233;28;20039;-54
2022/11/14 13:49:24;;;;;;;5.95;1.20;;;;;;;24.34;34.83;100896.91;5114111;28;20030;-53
2022/11/14 13:51:54;;;;;;;5.47;1.23;;;;;;;24.25;34.80;100891.59;5102178;28;20393;-50
2022/11/14 13:54:22;;;;;;;3.60;0.90;;;;;;;24.23;35.16;100893.31;5113196;28;20035;-52
2022/11/14 13:57:14;;;;;;;6.03;1.00;;;;;;;24.14;35.36;100890.59;5113654;28;20038;-52
2022/11/14 14:00:06;;;;;;;4.07;0.75;;;;;;;24.20;35.44;100888.94;5095666;28;20023;-54
2022/11/14 14:02:59;;;;;;;4.57;1.08;;;;;;;24.16;36.08;100894.97;5113167;28;20051;-58
2022/11/14 14:05:38;;;;;;;4.03;1.70;;;;;;;24.05;36.32;100883.50;5113511;28;20020;-50
2022/11/14 14:08:09;;;;;;;6.35;2.30;;;;;;;24.06;36.13;100886.13;5113220;28;20493;-50
2022/11/14 14:11:02;;;;;;;5.13;1.55;;;;;;;24.05;37.11;100867.78;5112999;28;20027;-58
2022/11/14 14:14:08;;;;;;;6.13;2.80;;;;;;;24.03;36.72;100862.50;5102584;28;20180;-55
2022/11/14 14:16:47;;;;;;;3.10;2.03;;;;;;;24.04;37.05;100866.03;5111546;28;20040;-54
2022/11/14 14:19:43;;;;;;;3.85;1.70;;;;;;;24.06;37.08;100862.56;5113518;28;20366;-49
2022/11/14 14:22:32;;;;;;;6.13;2.05;;;;;;;24.09;37.49;100859.06;5102446;28;20119;-48
2022/11/14 14:25:05;;;;;;;5.97;2.38;;;;;;;24.14;37.61;100854.78;5086530;28;20497;-50
2022/11/14 14:27:56;;;;;;;4.22;1.60;;;;;;;24.14;37.77;100849.53;5112819;28;20044;-52
2022/11/14 14:30:25;;;;;;;6.88;1.50;;;;;;;24.18;38.11;100850.44;5104907;28;20077;-53
2022/11/14 14:33:14;;;;;;;7.00;1.63;;;;;;;24.15;37.95;100850.44;5113127;28;20047;-47
2022/11/14 14:35:51;;;;;;;7.90;1.67;;;;;;;24.17;37.92;100848.66;5113194;28;20024;-51
2022/11/14 14:38:26;;;;;;;4.55;1.50;;;;;;;24.20;38.51;100846.09;5095509;28;20023;-52
2022/11/14 14:40:55;;;;;;;4.28;1.40;;;;;;;24.20;37.75;100851.34;5113035;28;20024;-55
2022/11/14 14:43:31;;;;;;;4.20;1.10;;;;;;;24.22;38.52;100845.25;5114317;28;20028;-50
2022/11/14 14:46:01;;;;;;;5.75;1.58;;;;;;;24.26;38.20;100841.78;5116928;28;20485;-51
2022/11/14 14:48:31;;;;;;;4.68;1.55;;;;;;;24.24;38.40;100842.66;5098780;28;20055;-48
2022/11/14 14:51:01;;;;;;;2.28;0.90;;;;;;;24.22;38.52;100839.13;5116586;28;20023;-52
2022/11/14 14:53:32;;;;;;;5.50;1.45;;;;;;;24.15;37.99;100817.22;5116313;28;20034;-53
2022/11/14 14:56:02;;;;;;;3.88;1.20;;;;;;;24.24;38.45;100827.78;5098322;28;20125;-51
2022/11/14 14:58:33;;;;;;;4.50;1.40;;;;;;;24.31;38.69;100823.50;5116736;28;20023;-54
2022/11/14 15:01:03;;;;;;;3.60;1.00;;;;;;;24.34;38.39;100825.25;5116561;28;20024;-54
2022/11/14 15:03:38;;;;;;;4.35;1.13;;;;;;;24.26;38.69;100812.09;5116204;28;20028;-54
2022/11/14 15:06:19;;;;;;;3.50;1.00;;;;;;;24.23;38.86;100822.53;5098305;28;20116;-59
2022/11/14 15:08:48;;;;;;;3.58;1.02;;;;;;;24.25;38.88;100823.44;5116699;28;20023;-57
2022/11/14 15:11:17;;;;;;;4.63;1.45;;;;;;;24.27;38.86;100816.47;5098185;28;20579;-52
2022/11/14 15:13:46;;;;;;;3.13;1.15;;;;;;;24.24;38.99;100808.56;5098372;28;20039;-51
2022/11/14 15:16:15;;;;;;;5.50;1.23;;;;;;;24.22;39.07;100810.28;5081883;28;20023;-49
2022/11/14 15:18:47;;;;;;;3.42;0.82;;;;;;;24.28;39.55;100812.97;5098030;28;20031;-52
2022/11/14 15:21:26;;;;;;;3.40;0.80;;;;;;;24.29;39.50;100809.50;5098122;28;20023;-50
2022/11/14 15:24:13;;;;;;;3.90;1.27;;;;;;;24.28;39.42;100810.38;5116061;28;20108;-53
2022/11/14 15:26:48;;;;;;;2.08;0.60;;;;;;;24.38;39.34;100809.56;5098415;28;20466;-51
2022/11/14 15:29:18;;;;;;;4.88;1.13;;;;;;;24.38;39.23;100804.31;5099108;28;20386;-48
2022/11/14 15:31:48;;;;;;;2.72;0.80;;;;;;;24.25;39.29;100792.84;5115596;28;20473;-49
2022/11/14 15:34:36;;;;;;;2.53;0.77;;;;;;;24.34;39.72;100812.16;5097980;28;20366;-49
2022/11/14 15:37:24;;;;;;;5.18;1.00;;;;;;;24.35;39.73;100804.28;5097749;28;20038;-49
2022/11/14 15:39:52;;;;;;;2.97;0.73;;;;;;;24.36;39.42;100798.19;5116319;28;20019;-50
2022/11/14 15:42:29;;;;;;;2.95;0.70;;;;;;;24.32;39.48;100796.44;5097729;28;20031;-49
2022/11/14 15:44:58;;;;;;;2.45;0.77;;;;;;;24.39;39.81;100799.97;5115527;28;20485;-51
2022/11/14 15:47:29;;;;;;;2.40;0.90;;;;;;;24.42;39.64;100795.63;5115507;28;20031;-52
2022/11/14 15:50:03;;;;;;;3.00;0.95;;;;;;;24.42;39.44;100798.25;5098041;28;20027;-51
2022/11/14 15:52:34;;;;;;;3.83;0.80;;;;;;;24.46;39.40;100780.78;5115768;28;20106;-47
2022/11/14 15:55:03;;;;;;;5.00;0.95;;;;;;;24.49;39.33;100786.06;5115612;28;20504;-51
2022/11/14 15:57:33;;;;;;;2.28;0.70;;;;;;;24.49;38.97;100785.19;5097014;28;20062;-53
2022/11/14 16:00:01;;;;;;;4.80;1.17;;;;;;;24.54;39.60;100780.84;5097470;28;20039;-51
2022/11/14 16:02:32;;;;;;;2.75;1.00;;;;;;;24.55;39.42;100777.34;5115582;28;20409;-50
2022/11/14 16:05:01;;;;;;;4.05;0.93;;;;;;;24.58;39.20;100770.38;5115167;28;20027;-48
2022/11/14 16:07:29;;;;;;;2.63;0.63;;;;;;;24.54;39.29;100776.50;5114807;28;20043;-51
2022/11/14 16:09:56;;;;;;;2.40;0.82;;;;;;;24.59;39.04;100773.91;5115597;28;20143;-48
2022/11/14 16:12:25;;;;;;;3.88;0.90;;;;;;;24.58;39.39;100769.53;5115257;28;20405;-46
2022/11/14 16:14:53;;;;;;;2.63;0.80;;;;;;;24.58;39.26;100770.38;5097574;28;20023;-50
2022/11/14 16:17:22;;;;;;;4.70;0.93;;;;;;;24.47;39.77;100763.34;5114961;28;20035;-51
2022/11/14 16:19:51;;;;;;;3.72;0.93;;;;;;;24.46;39.47;100764.19;5115015;28;20023;-51
2022/11/14 16:22:19;;;;;;;4.72;1.23;;;;;;;24.60;39.32;100754.69;5115010;28;20031;-54
2022/11/14 16:24:48;;;;;;;5.13;1.02;;;;;;;24.54;39.61;100763.38;5115169;28;20381;-54
2022/11/14 16:27:16;;;;;;;2.28;0.70;;;;;;;24.47;39.56;100758.09;5114852;28;20019;-48
2022/11/14 16:29:44;;;;;;;5.57;0.98;;;;;;;24.50;39.40;100758.09;5115183;28;20343;-47
2022/11/14 16:32:13;;;;;;;2.15;0.63;;;;;;;24.51;39.51;100757.22;5114732;28;20027;-48
2022/11/14 16:34:40;;;;;;;3.47;0.93;;;;;;;24.45;39.53;100751.94;5124160;27;20023;-49
2022/11/14 16:37:12;;;;;;;3.55;0.63;;;;;;;24.38;40.09;100751.88;5122296;27;20024;-50
2022/11/14 16:39:39;;;;;;;1.58;0.80;;;;;;;24.35;40.04;100741.38;5079473;28;20479;-52
2022/11/14 16:42:07;;;;;;;2.10;0.63;;;;;;;24.34;40.13;100744.84;5114414;28;20024;-48
2022/11/14 16:44:35;;;;;;;2.85;0.88;;;;;;;24.33;40.04;100748.34;5113854;28;20032;-47
2022/11/14 16:47:02;;;;;;;1.85;0.60;;;;;;;24.34;40.43;100742.22;5114103;28;20080;-52
2022/11/14 16:49:30;;;;;;;2.95;0.63;;;;;;;24.38;40.10;100738.78;5114184;28;20027;-48
2022/11/14 16:52:01;;;;;;;5.32;1.15;;;;;;;24.34;40.11;100734.38;5114304;28;20035;-52
2022/11/14 16:54:28;;;;;;;1.60;0.70;;;;;;;24.40;40.19;100725.69;5113306;28;20031;-51
2022/11/14 16:56:56;;;;;;;2.30;0.63;;;;;;;24.40;40.01;100729.19;5113611;28;20123;-47
2022/11/14 16:59:23;;;;;;;4.40;0.77;;;;;;;24.38;40.34;100730.91;5113757;28;20390;-50
2022/11/14 17:01:50;;;;;;;8.02;1.33;;;;;;;24.37;39.99;100717.81;5096327;28;20019;-47
2022/11/14 17:04:17;;;;;;;2.05;0.90;;;;;;;24.37;40.14;100725.66;5113517;28;20024;-48
2022/11/14 17:06:44;;;;;;;3.88;0.70;;;;;;;24.36;40.29;100716.06;5112154;28;20058;-51
2022/11/14 17:09:13;;;;;;;4.07;1.15;;;;;;;24.40;40.09;100709.97;5114287;28;20036;-47
2022/11/14 17:11:43;;;;;;;4.13;1.05;;;;;;;24.34;40.11;100713.41;5079052;28;20019;-47
2022/11/14 17:14:11;;;;;;;3.42;0.82;;;;;;;24.35;40.01;100717.78;5113001;28;20092;-47
2022/11/14 17:16:39;;;;;;;3.28;1.00;;;;;;;24.32;40.34;100714.25;5113253;28;20028;-47
2022/11/14 17:19:07;;;;;;;2.05;0.63;;;;;;;24.31;40.39;100718.63;5113905;28;20398;-52
2022/11/14 17:21:34;;;;;;;4.78;1.23;;;;;;;24.32;40.41;100704.66;5114097;28;20020;-49
2022/11/14 17:24:02;;;;;;;2.35;0.70;;;;;;;24.33;40.25;100706.41;5112905;28;20429;-53
2022/11/14 17:26:30;;;;;;;3.45;0.77;;;;;;;24.31;40.39;100713.41;5113398;28;20064;-52
2022/11/14 17:28:57;;;;;;;3.28;0.90;;;;;;;24.29;40.12;100704.66;5113811;28;20538;-54
2022/11/14 17:31:25;;;;;;;5.20;1.00;;;;;;;24.31;40.49;100697.66;5113974;28;20458;-48
2022/11/14 17:33:55;;;;;;;4.15;0.90;;;;;;;24.36;40.46;100701.19;5113210;28;20069;-48
2022/11/14 17:36:24;;;;;;;3.33;0.90;;;;;;;24.33;40.00;100703.78;5112724;28;20050;-47
2022/11/14 17:38:52;;;;;;;3.15;1.02;;;;;;;24.26;40.12;100675.78;5095042;28;20028;-48
2022/11/14 17:41:20;;;;;;;3.45;0.93;;;;;;;24.39;40.16;100695.97;5113696;28;20028;-46
2022/11/14 17:43:52;;;;;;;3.58;0.73;;;;;;;24.37;39.77;100705.56;5113423;28;20027;-47
2022/11/14 17:46:20;;;;;;;3.25;0.80;;;;;;;24.43;39.81;100689.88;5113187;28;20035;-47
2022/11/14 17:48:48;;;;;;;6.30;1.15;;;;;;;24.51;39.82;100694.28;5112865;28;20034;-46
2022/11/14 17:51:17;;;;;;;4.35;1.10;;;;;;;24.51;39.87;100699.53;5113705;28;20024;-50
2022/11/14 17:53:46;;;;;;;17.23;10.73;;;;;;;24.51;39.62;100699.53;5113166;28;20036;-54
2022/11/14 17:56:16;;;;;;;20.25;13.15;;;;;;;24.45;40.07;100695.13;5113669;28;20020;-53
2022/11/14 17:58:46;;;;;;;21.02;12.00;;;;;;;24.52;39.60;100686.44;5112920;28;20028;-57
2022/11/14 18:01:16;;;;;;;17.10;10.43;;;;;;;24.58;39.55;100693.47;5113723;28;20023;-49
2022/11/14 18:03:44;;;;;;;17.60;9.80;;;;;;;24.69;39.45;100691.78;5113332;28;20036;-49
2022/11/14 18:06:15;;;;;;;18.85;9.95;;;;;;;24.77;39.30;100697.09;5112740;28;20038;-50
2022/11/14 18:08:42;;;;;;;10.35;7.60;;;;;;;24.76;39.15;100689.22;5094842;28;20024;-56
2022/11/14 18:11:13;;;;;;;16.50;7.75;;;;;;;24.70;39.65;100687.47;5113000;28;20466;-48
2022/11/14 18:13:41;;;;;;;13.50;7.00;;;;;;;24.68;39.33;100697.88;5113608;28;20031;-48
2022/11/14 18:16:12;;;;;;;12.15;6.20;;;;;;;24.61;39.74;100706.59;5113236;28;20047;-48
2022/11/14 18:18:41;;;;;;;11.05;5.65;;;;;;;24.65;39.93;100708.38;5115121;28;20086;-49
2022/11/14 18:21:12;;;;;;;11.82;5.82;;;;;;;24.59;40.18;100700.47;5117345;28;20462;-54
2022/11/14 18:23:40;;;;;;;9.32;4.75;;;;;;;24.57;40.54;100696.97;5098964;28;20032;-50
2022/11/14 18:26:13;;;;;;;9.65;5.15;;;;;;;24.56;40.55;100703.06;5117172;28;20020;-54
2022/11/14 18:28:42;;;;;;;7.63;5.35;;;;;;;24.59;40.76;100703.09;5098588;28;20070;-47
2022/11/14 18:31:10;;;;;;;7.45;4.07;;;;;;;24.68;40.46;100700.50;5117107;28;20023;-50
2022/11/14 18:33:39;;;;;;;9.73;4.43;;;;;;;24.69;40.58;100693.53;5098993;28;20031;-49
2022/11/14 18:36:11;;;;;;;10.88;5.70;;;;;;;24.67;40.73;100683.00;5116601;28;20034;-47
2022/11/14 18:38:39;;;;;;;7.30;4.47;;;;;;;24.77;40.82;100668.25;5116768;28;20020;-53
2022/11/14 18:41:11;;;;;;;8.18;4.72;;;;;;;24.81;40.98;100666.53;5116845;28;20023;-51
2022/11/14 18:43:39;;;;;;;7.03;4.38;;;;;;;24.81;41.10;100659.53;5116731;28;20481;-53
2022/11/14 18:46:13;;;;;;;12.63;4.70;;;;;;;24.85;41.15;100656.06;5116497;28;20425;-57
2022/11/14 18:48:43;;;;;;;8.98;4.63;;;;;;;24.88;41.40;100648.19;5116651;28;20102;-46
2022/11/14 18:51:17;;;;;;;8.95;3.53;;;;;;;24.91;41.22;100654.31;5116720;28;20028;-50
2022/11/14 18:53:45;;;;;;;6.63;3.28;;;;;;;24.92;41.41;100654.31;5116601;28;20023;-50
2022/11/14 18:56:15;;;;;;;7.93;3.78;;;;;;;24.93;41.33;100653.47;5116512;28;20038;-47
2022/11/14 18:58:44;;;;;;;7.07;3.13;;;;;;;24.99;41.63;100645.59;5116138;28;20028;-48
2022/11/14 19:01:14;;;;;;;8.75;3.35;;;;;;;25.00;41.37;100634.22;5116591;28;20119;-52
2022/11/14 19:03:41;;;;;;;10.25;3.35;;;;;;;25.06;41.30;100635.13;5116668;28;20386;-48
2022/11/14 19:06:12;;;;;;;8.10;2.47;;;;;;;25.10;41.16;100642.16;5116284;28;20024;-50
2022/11/14 19:08:41;;;;;;;6.35;2.95;;;;;;;25.13;41.22;100640.41;5098256;28;20028;-48
2022/11/14 19:12:17;;;;;;;7.20;2.58;;;;;;;25.20;41.26;100628.16;5116309;27;20028;-52
2022/11/14 19:14:02;;;;;;;5.88;2.25;;;;;;;25.25;41.22;100617.66;5116237;28;20032;-48
2022/11/14 19:16:31;;;;;;;5.53;2.22;;;;;;;25.26;41.36;100615.06;5116665;28;20027;-47
2022/11/14 19:18:59;;;;;;;4.15;2.08;;;;;;;25.28;41.07;100609.81;5141623;22;20060;-49
2022/11/14 19:21:28;;;;;;;5.30;2.38;;;;;;;25.27;41.47;100606.31;5057677;28;20036;-48
2022/11/14 19:23:58;;;;;;;6.25;2.40;;;;;;;25.32;41.10;100608.94;5055762;28;20025;-49
2022/11/14 19:26:27;;;;;;;4.38;2.20;;;;;;;25.33;41.05;100600.19;5037968;28;20052;-48
2022/11/14 19:28:55;;;;;;;7.32;2.80;;;;;;;25.31;40.85;100587.06;5037008;28;20437;-48
2022/11/14 19:31:25;;;;;;;4.47;2.20;;;;;;;25.39;41.01;100591.44;5054962;28;20079;-46
2022/11/14 19:33:53;;;;;;;6.40;2.70;;;;;;;25.41;41.10;100602.81;5055364;28;20025;-47
2022/11/14 19:36:23;;;;;;;5.15;2.10;;;;;;;25.42;41.21;100591.50;5055374;28;20483;-47
2022/11/14 19:39:01;;;;;;;5.68;2.00;;;;;;;25.38;41.07;100587.97;5055462;28;20025;-48
2022/11/14 19:41:31;;;;;;;6.25;2.17;;;;;;;25.47;41.10;100581.88;5037301;28;20506;-48
2022/11/14 19:44:01;;;;;;;5.53;2.17;;;;;;;25.46;40.93;100586.22;5054991;28;20036;-49
2022/11/14 19:46:29;;;;;;;3.75;1.77;;;;;;;25.51;41.02;100583.59;5022231;28;20050;-49
2022/11/14 19:48:59;;;;;;;4.38;1.60;;;;;;;25.53;40.89;100592.34;5055348;28;20025;-52
2022/11/14 19:51:27;;;;;;;4.60;1.60;;;;;;;25.58;40.87;100588.00;5055229;28;20029;-48
2022/11/14 19:53:57;;;;;;;7.00;2.10;;;;;;;25.55;40.81;100584.50;5054706;28;20096;-51
2022/11/14 19:56:26;;;;;;;2.80;1.23;;;;;;;25.55;40.89;100579.25;5055112;28;20052;-49
2022/11/14 19:58:55;;;;;;;4.22;1.48;;;;;;;25.61;40.93;100585.38;5055138;28;20083;-49
2022/11/14 20:01:25;;;;;;;4.88;1.60;;;;;;;25.65;40.87;100569.63;5055331;28;20053;-49
2022/11/14 20:03:55;;;;;;;5.55;1.25;;;;;;;25.67;40.85;100571.34;5054734;28;20025;-51
2022/11/14 20:06:27;;;;;;;3.33;1.30;;;;;;;25.72;40.67;100564.34;5054658;28;20501;-47
2022/11/14 20:08:56;;;;;;;42.33;33.85;;;;;;;25.69;40.96;100559.09;5054768;28;20033;-48
2022/11/14 20:11:26;;;;;;;36.95;30.02;;;;;;;25.73;40.83;100555.56;5051609;28;20471;-52
2022/11/14 20:13:54;;;;;;;30.50;24.13;;;;;;;25.75;40.54;100545.94;5054508;28;20040;-51
2022/11/14 20:16:24;;;;;;;27.40;20.08;;;;;;;25.76;40.50;100549.47;5053635;28;20036;-55
2022/11/14 20:18:55;;;;;;;26.65;18.25;;;;;;;25.74;40.42;100543.31;5049814;28;20063;-54
